Time;durP1;ratioP1;P1;durP2;ratioP2;P2;SDS_P1;SDS_P2;PMS_P1;PMS_P2;Temp;Humidity;BMP_temperature;BMP_pressure;BME280_temperature;BME280_humidity;BME280_pressure;Samples;Min_cycle;Max_cycle;Signal;HPM_P1;HPM_P2
2023/06/15 00:01:27;;;;;;;9.48;7.75;;;20.90;99.90;;;;;;5093279;28;20063;-73
2023/06/15 00:04:31;;;;;;;8.57;5.10;;;20.90;99.90;;;;;;5093369;28;20047;-76
2023/06/15 00:07:35;;;;;;;7.88;6.20;;;20.90;99.90;;;;;;5094118;28;20043;-74
2023/06/15 00:10:39;;;;;;;8.55;6.47;;;20.90;99.90;;;;;;5093465;28;20050;-75
2023/06/15 00:13:42;;;;;;;7.13;4.40;;;20.80;99.90;;;;;;5093237;28;20043;-75
2023/06/15 00:16:47;;;;;;;6.95;4.25;;;20.80;99.90;;;;;;5093453;28;20046;-76
2023/06/15 00:19:53;;;;;;;14.75;4.65;;;20.80;99.90;;;;;;5092916;28;20242;-76
2023/06/15 00:22:58;;;;;;;6.82;4.43;;;20.80;99.90;;;;;;5080978;28;20043;-76
2023/06/15 00:26:03;;;;;;;11.32;6.15;;;20.80;99.90;;;;;;5093438;28;20391;-76
2023/06/15 00:29:07;;;;;;;11.40;5.10;;;20.70;99.90;;;;;;5081330;28;20047;-76
2023/06/15 00:32:11;;;;;;;5.93;4.30;;;20.60;99.90;;;;;;5067193;28;20052;-76
2023/06/15 00:35:15;;;;;;;6.40;4.53;;;20.60;99.90;;;;;;5053590;28;20527;-76
2023/06/15 00:38:19;;;;;;;8.73;4.95;;;20.70;99.90;;;;;;5052588;28;20523;-76
2023/06/15 00:41:23;;;;;;;8.50;5.45;;;20.80;99.90;;;;;;5041564;28;20043;-75
2023/06/15 00:44:27;;;;;;;11.30;5.32;;;20.80;99.90;;;;;;5053515;28;20409;-76
2023/06/15 00:47:38;;;;;;;9.48;5.35;;;20.70;99.90;;;;;;5052281;28;20051;-75
2023/06/15 00:50:42;;;;;;;11.38;4.63;;;20.70;99.90;;;;;;5039223;28;20036;-76
2023/06/15 00:53:46;;;;;;;7.82;5.30;;;20.60;99.90;;;;;;5051055;28;20051;-76
2023/06/15 00:56:52;;;;;;;12.95;6.28;;;20.60;99.90;;;;;;5051628;28;20039;-76
2023/06/15 00:59:57;;;;;;;9.65;4.85;;;20.60;99.90;;;;;;5051365;28;20056;-76
2023/06/15 01:03:04;;;;;;;9.48;5.28;;;20.50;99.90;;;;;;5051545;28;20067;-76
2023/06/15 01:06:13;;;;;;;8.25;5.10;;;20.50;99.90;;;;;;5051794;28;20048;-77
2023/06/15 01:09:21;;;;;;;7.40;4.63;;;20.50;99.90;;;;;;5052054;28;20040;-74
2023/06/15 01:12:28;;;;;;;8.15;4.18;;;20.70;99.90;;;;;;5052634;28;20055;-76
2023/06/15 01:15:34;;;;;;;7.93;4.40;;;20.80;99.90;;;;;;5053377;28;20048;-77
2023/06/15 01:18:46;;;;;;;7.82;4.63;;;20.80;99.90;;;;;;5052240;28;20052;-75
2023/06/15 01:21:50;;;;;;;7.88;4.40;;;20.80;99.90;;;;;;5052297;28;20252;-76
2023/06/15 01:25:08;;;;;;;6.70;4.63;;;20.80;99.90;;;;;;5053225;28;20278;-74
2023/06/15 01:28:15;;;;;;;8.82;4.63;;;20.90;99.90;;;;;;5053571;28;20396;-75
2023/06/15 01:31:19;;;;;;;8.23;4.80;;;20.80;99.90;;;;;;5052309;28;20048;-75
2023/06/15 01:34:23;;;;;;;11.55;4.80;;;20.80;99.90;;;;;;5053734;28;20044;-74
2023/06/15 01:37:27;;;;;;;7.45;4.50;;;20.80;99.90;;;;;;5055548;28;20048;-75
2023/06/15 01:40:34;;;;;;;10.20;4.63;;;20.90;99.90;;;;;;5056977;28;20424;-75
2023/06/15 01:43:40;;;;;;;6.47;4.53;;;20.90;99.90;;;;;;5058169;28;20063;-76
2023/06/15 01:46:45;;;;;;;8.38;5.28;;;20.90;99.90;;;;;;5057619;28;20044;-75
2023/06/15 01:49:50;;;;;;;7.53;4.82;;;20.90;99.90;;;;;;5045754;28;20051;-76
2023/06/15 01:52:54;;;;;;;4.72;4.22;;;20.90;99.90;;;;;;5058105;28;20515;-76
2023/06/15 01:56:01;;;;;;;6.43;4.25;;;20.80;99.90;;;;;;5056875;28;20063;-76
2023/06/15 01:59:05;;;;;;;7.10;4.10;;;20.80;99.90;;;;;;5046838;28;20036;-76
2023/06/15 02:02:09;;;;;;;10.00;4.38;;;20.80;99.90;;;;;;5045144;28;20393;-76
2023/06/15 02:05:14;;;;;;;6.72;4.07;;;20.70;99.90;;;;;;5044585;28;20048;-76
2023/06/15 02:08:19;;;;;;;7.35;4.45;;;20.60;99.90;;;;;;5044036;28;20040;-76
2023/06/15 02:11:23;;;;;;;7.40;4.43;;;20.60;99.90;;;;;;5053335;28;20512;-76
2023/06/15 02:14:28;;;;;;;6.30;3.95;;;20.60;99.90;;;;;;5053757;28;20520;-76
2023/06/15 02:17:38;;;;;;;6.53;3.97;;;20.60;99.90;;;;;;5056661;28;20060;-76
2023/06/15 02:20:43;;;;;;;8.50;4.05;;;20.60;99.90;;;;;;5056682;28;20052;-76
2023/06/15 02:23:48;;;;;;;6.43;3.88;;;20.60;99.90;;;;;;5057522;28;20406;-75
2023/06/15 02:26:53;;;;;;;6.00;4.20;;;20.70;99.90;;;;;;5056676;28;20139;-76
2023/06/15 02:29:57;;;;;;;6.53;3.95;;;20.70;99.90;;;;;;5056204;28;20052;-76
2023/06/15 02:33:02;;;;;;;6.65;3.85;;;20.70;99.90;;;;;;5055153;28;20052;-75
2023/06/15 02:36:07;;;;;;;10.82;4.05;;;20.70;99.90;;;;;;5055814;28;20044;-77
2023/06/15 02:39:12;;;;;;;4.97;3.40;;;20.60;99.90;;;;;;5068445;28;20052;-77
2023/06/15 02:42:16;;;;;;;6.30;3.92;;;20.70;99.90;;;;;;5057954;28;20044;-76
2023/06/15 02:45:21;;;;;;;5.93;3.85;;;20.70;99.90;;;;;;5056260;28;20044;-76
2023/06/15 02:48:26;;;;;;;7.40;4.18;;;20.80;99.90;;;;;;5054706;28;20052;-77
2023/06/15 02:51:31;;;;;;;5.10;3.40;;;20.80;99.90;;;;;;5064563;28;20401;-75
2023/06/15 02:54:36;;;;;;;5.20;3.63;;;20.70;99.90;;;;;;5053913;28;20417;-76
2023/06/15 02:57:41;;;;;;;9.05;3.63;;;20.70;99.90;;;;;;5053895;28;20040;-76
2023/06/15 03:01:12;;;;;;;5.75;4.03;;;20.60;99.90;;;;;;5051163;28;20048;-75
2023/06/15 03:04:24;;;;;;;7.53;3.25;;;20.50;99.90;;;;;;5054591;28;20060;-75
2023/06/15 03:07:32;;;;;;;8.48;4.00;;;20.50;99.90;;;;;;5054404;28;20400;-75
2023/06/15 03:10:57;;;;;;;6.63;3.97;;;20.40;99.90;;;;;;5054057;28;20040;-76
2023/06/15 03:14:02;;;;;;;8.07;3.78;;;20.50;99.90;;;;;;5054240;28;20048;-75
2023/06/15 03:17:15;;;;;;;6.75;3.92;;;20.50;99.90;;;;;;5054247;28;20095;-76
2023/06/15 03:20:22;;;;;;;8.52;4.10;;;20.60;99.90;;;;;;5065111;28;20048;-77
2023/06/15 03:23:26;;;;;;;8.15;3.65;;;20.60;99.90;;;;;;5052929;28;20192;-76
2023/06/15 03:26:33;;;;;;;6.80;3.75;;;20.70;99.90;;;;;;5052679;28;20059;-77
2023/06/15 03:29:38;;;;;;;5.88;3.50;;;20.70;99.90;;;;;;5051321;28;20051;-75
2023/06/15 03:32:44;;;;;;;8.25;4.15;;;20.70;99.90;;;;;;5051325;28;20055;-75
2023/06/15 03:35:49;;;;;;;4.85;3.90;;;20.80;99.90;;;;;;5062328;28;20056;-75
2023/06/15 03:38:53;;;;;;;6.55;4.15;;;20.80;99.90;;;;;;5039711;28;20531;-76
2023/06/15 03:41:57;;;;;;;6.70;4.20;;;20.80;99.90;;;;;;5052117;28;20067;-75
2023/06/15 03:45:02;;;;;;;6.68;4.28;;;20.80;99.90;;;;;;5050805;28;20044;-75
2023/06/15 03:48:07;;;;;;;11.10;4.72;;;20.80;99.90;;;;;;5051500;28;20401;-76
2023/06/15 03:51:12;;;;;;;9.48;4.45;;;20.80;99.90;;;;;;5040031;28;20052;-76
2023/06/15 03:54:18;;;;;;;11.77;4.60;;;20.70;99.90;;;;;;5050783;28;20055;-76
2023/06/15 03:57:24;;;;;;;7.13;4.63;;;20.70;99.90;;;;;;5051562;28;20056;-76
2023/06/15 04:00:28;;;;;;;10.30;5.43;;;20.70;99.90;;;;;;5050383;28;20496;-75
2023/06/15 04:03:35;;;;;;;7.70;5.50;;;20.70;99.90;;;;;;5050700;28;20040;-75
2023/06/15 04:06:45;;;;;;;6.88;4.88;;;20.70;99.90;;;;;;5040017;28;20502;-76
2023/06/15 04:09:50;;;;;;;9.02;5.03;;;20.70;99.90;;;;;;5051359;28;20499;-75
2023/06/15 04:12:56;;;;;;;9.10;4.93;;;20.70;99.90;;;;;;5051097;28;20044;-76
2023/06/15 04:16:00;;;;;;;6.90;4.70;;;20.70;99.90;;;;;;5051861;28;20192;-76
2023/06/15 04:19:03;;;;;;;8.52;5.13;;;20.70;99.90;;;;;;5051986;28;20044;-77
2023/06/15 04:22:08;;;;;;;7.10;5.32;;;20.70;99.90;;;;;;5053224;28;20074;-74
2023/06/15 04:25:12;;;;;;;11.23;5.43;;;20.80;99.90;;;;;;5052346;28;20039;-73
2023/06/15 04:28:16;;;;;;;8.68;5.20;;;20.80;99.90;;;;;;5064093;28;20048;-75
2023/06/15 04:31:22;;;;;;;8.02;5.00;;;20.80;99.90;;;;;;5040206;28;20048;-75
2023/06/15 04:34:27;;;;;;;7.90;5.45;;;20.80;99.90;;;;;;5052026;28;20496;-75
2023/06/15 04:37:32;;;;;;;8.05;5.45;;;20.70;99.90;;;;;;5050249;28;20048;-75
2023/06/15 04:40:37;;;;;;;8.63;5.10;;;20.70;99.90;;;;;;5050095;28;20036;-76
2023/06/15 04:43:42;;;;;;;7.30;4.97;;;20.60;99.90;;;;;;5050434;28;20381;-76
2023/06/15 04:46:46;;;;;;;7.40;5.60;;;20.70;99.90;;;;;;5050543;28;20044;-75
2023/06/15 04:49:51;;;;;;;10.00;5.05;;;20.70;99.90;;;;;;5050417;28;20040;-75
2023/06/15 04:52:55;;;;;;;9.20;5.53;;;20.70;99.90;;;;;;5052602;28;20516;-73
2023/06/15 04:55:59;;;;;;;12.45;6.13;;;20.70;99.90;;;;;;5050466;28;20056;-75
2023/06/15 04:59:04;;;;;;;13.15;6.80;;;20.70;99.90;;;;;;5050918;28;20040;-73
2023/06/15 05:02:08;;;;;;;10.73;7.30;;;20.80;99.90;;;;;;5052213;28;20191;-74
2023/06/15 05:05:15;;;;;;;10.93;7.53;;;20.90;99.90;;;;;;5052167;28;20036;-74
2023/06/15 05:08:20;;;;;;;8.45;6.47;;;20.90;99.90;;;;;;5051702;28;20048;-75
2023/06/15 05:11:23;;;;;;;9.02;6.15;;;21.00;99.90;;;;;;5051914;28;20396;-74
2023/06/15 05:14:28;;;;;;;12.77;6.07;;;21.00;99.90;;;;;;5056064;28;20052;-76
2023/06/15 05:17:32;;;;;;;7.63;4.80;;;21.10;99.90;;;;;;5055171;28;20052;-75
2023/06/15 05:20:37;;;;;;;6.15;3.38;;;21.10;99.90;;;;;;5054337;28;20051;-75
2023/06/15 05:23:41;;;;;;;5.55;3.20;;;21.00;99.90;;;;;;5052790;28;20052;-72
2023/06/15 05:26:46;;;;;;;8.13;3.03;;;21.00;99.90;;;;;;5051865;28;20048;-70
2023/06/15 05:29:50;;;;;;;8.15;3.20;;;21.00;99.90;;;;;;5053224;28;20063;-70
2023/06/15 05:32:54;;;;;;;12.18;4.20;;;21.00;99.90;;;;;;5081873;28;20094;-71
2023/06/15 05:35:59;;;;;;;8.18;2.30;;;21.00;99.90;;;;;;5081790;28;20054;-72
2023/06/15 05:39:04;;;;;;;7.03;3.08;;;21.00;99.90;;;;;;5094437;28;20039;-71
2023/06/15 05:42:08;;;;;;;4.63;2.45;;;21.00;99.90;;;;;;5082519;28;20055;-70
2023/06/15 05:45:14;;;;;;;4.78;2.53;;;21.00;99.90;;;;;;5082451;28;20396;-72
2023/06/15 05:48:19;;;;;;;7.07;2.10;;;21.00;99.90;;;;;;5081835;28;20051;-73
2023/06/15 05:51:24;;;;;;;4.60;2.00;;;21.00;99.90;;;;;;5095160;28;20051;-70
2023/06/15 05:54:28;;;;;;;3.10;1.85;;;21.00;99.90;;;;;;5082037;28;20047;-73
2023/06/15 05:57:33;;;;;;;5.45;2.30;;;21.00;99.90;;;;;;5081823;28;20043;-72
2023/06/15 06:00:38;;;;;;;4.05;2.30;;;21.10;99.90;;;;;;5083401;28;20039;-70
2023/06/15 06:03:43;;;;;;;5.13;2.40;;;21.10;99.90;;;;;;5095817;28;20399;-71
2023/06/15 06:06:49;;;;;;;5.28;2.38;;;21.10;99.90;;;;;;5083953;28;20035;-71
2023/06/15 06:09:53;;;;;;;6.03;2.70;;;21.10;99.90;;;;;;5083353;28;20073;-73
2023/06/15 06:12:58;;;;;;;3.72;2.35;;;21.10;99.90;;;;;;5087005;28;20051;-75
2023/06/15 06:16:04;;;;;;;6.43;3.17;;;21.10;99.90;;;;;;5074247;28;20047;-73
2023/06/15 06:19:08;;;;;;;4.47;2.63;;;21.10;99.90;;;;;;5085728;28;20039;-73
2023/06/15 06:22:13;;;;;;;5.57;2.72;;;21.10;99.90;;;;;;5074517;28;20051;-72
2023/06/15 06:25:17;;;;;;;5.20;2.90;;;21.10;99.90;;;;;;5099330;28;20047;-73
2023/06/15 06:28:22;;;;;;;3.55;2.88;;;21.20;99.90;;;;;;5096384;28;20102;-69
2023/06/15 06:31:26;;;;;;;4.47;2.90;;;21.20;99.90;;;;;;5095658;28;20055;-72
2023/06/15 06:34:30;;;;;;;3.95;3.00;;;21.20;99.90;;;;;;5095101;28;20415;-72
2023/06/15 06:37:34;;;;;;;6.40;2.67;;;21.20;99.90;;;;;;5095060;28;20043;-72
2023/06/15 06:40:38;;;;;;;4.00;2.53;;;21.20;99.90;;;;;;5093520;28;20051;-67
2023/06/15 06:43:42;;;;;;;3.80;2.45;;;21.10;99.90;;;;;;5093153;28;20043;-69
2023/06/15 06:46:46;;;;;;;3.90;3.03;;;21.10;99.90;;;;;;5080397;28;20110;-70
2023/06/15 06:49:51;;;;;;;4.13;2.97;;;21.10;99.90;;;;;;5094143;28;20117;-68
2023/06/15 06:52:55;;;;;;;4.47;3.17;;;21.00;99.90;;;;;;5093820;28;20499;-71
2023/06/15 06:55:59;;;;;;;3.90;3.00;;;20.90;99.90;;;;;;5092967;28;20046;-70
2023/06/15 06:59:02;;;;;;;5.80;3.30;;;21.00;99.90;;;;;;5093669;28;20035;-71
2023/06/15 07:02:07;;;;;;;6.88;3.42;;;21.00;99.90;;;;;;5093963;28;20047;-71
2023/06/15 07:05:10;;;;;;;3.13;2.28;;;21.00;99.90;;;;;;5093497;28;20054;-70
2023/06/15 07:08:14;;;;;;;4.95;2.50;;;21.20;99.90;;;;;;5092722;28;20043;-69
2023/06/15 07:11:18;;;;;;;4.25;2.40;;;21.30;99.90;;;;;;5093665;28;20071;-68
2023/06/15 07:14:22;;;;;;;4.05;2.53;;;21.40;99.90;;;;;;5092434;28;20047;-69
2023/06/15 07:17:27;;;;;;;4.72;2.53;;;21.60;99.90;;;;;;5092725;28;20055;-69
2023/06/15 07:20:30;;;;;;;8.57;3.08;;;21.60;99.90;;;;;;5092703;28;20039;-72
2023/06/15 07:23:34;;;;;;;2.58;2.20;;;21.50;99.90;;;;;;5092990;28;20062;-70
2023/06/15 07:26:38;;;;;;;3.30;2.30;;;21.50;99.90;;;;;;5092076;28;20035;-70
2023/06/15 07:29:42;;;;;;;2.53;2.05;;;21.60;99.90;;;;;;5093265;28;20376;-70
2023/06/15 07:32:46;;;;;;;4.65;1.77;;;21.70;99.90;;;;;;5092365;28;20498;-74
2023/06/15 07:35:50;;;;;;;3.22;1.88;;;21.80;99.90;;;;;;5078396;28;20066;-69
2023/06/15 07:38:54;;;;;;;4.95;2.30;;;21.80;99.90;;;;;;5092392;28;20054;-76
2023/06/15 07:41:58;;;;;;;4.15;1.75;;;21.90;99.90;;;;;;5091055;28;20043;-72
2023/06/15 07:45:03;;;;;;;1.95;1.60;;;21.80;99.90;;;;;;5088295;28;20043;-72
2023/06/15 07:48:06;;;;;;;3.28;2.45;;;22.00;99.90;;;;;;5091113;28;20067;-73
2023/06/15 07:51:10;;;;;;;3.78;2.63;;;22.00;99.90;;;;;;5090628;28;20047;-72
2023/06/15 07:54:14;;;;;;;3.03;1.80;;;22.00;99.90;;;;;;5090940;28;20047;-73
2023/06/15 07:57:18;;;;;;;2.55;2.10;;;22.10;99.90;;;;;;5078553;28;20491;-70
2023/06/15 08:00:22;;;;;;;3.15;2.38;;;22.20;99.90;;;;;;5090045;28;20043;-73
2023/06/15 08:03:35;;;;;;;4.35;2.45;;;22.30;99.90;;;;;;5091295;28;20066;-73
2023/06/15 08:06:39;;;;;;;4.30;2.63;;;22.30;99.90;;;;;;5091174;28;20071;-72
2023/06/15 08:09:43;;;;;;;7.38;2.60;;;22.30;99.90;;;;;;5078635;28;20055;-73
2023/06/15 08:12:47;;;;;;;3.80;2.85;;;22.30;99.90;;;;;;5091686;28;20047;-73
2023/06/15 08:15:52;;;;;;;5.25;2.75;;;22.40;99.90;;;;;;5091539;28;20055;-72
2023/06/15 08:18:55;;;;;;;2.88;2.20;;;22.40;99.90;;;;;;5093285;28;20043;-74
2023/06/15 08:21:59;;;;;;;3.03;2.10;;;22.30;99.90;;;;;;5079519;28;20051;-73
2023/06/15 08:25:05;;;;;;;3.22;2.17;;;22.30;99.90;;;;;;5091856;28;20047;-74
2023/06/15 08:28:09;;;;;;;3.30;2.30;;;22.30;99.90;;;;;;5091750;28;20051;-73
2023/06/15 08:31:13;;;;;;;2.28;1.92;;;22.20;99.90;;;;;;5090847;28;20055;-73
2023/06/15 08:34:18;;;;;;;5.63;2.88;;;22.40;99.90;;;;;;5078595;28;20043;-72
2023/06/15 08:37:22;;;;;;;8.77;5.10;;;22.60;99.90;;;;;;5091267;28;20118;-76
2023/06/15 08:40:26;;;;;;;5.32;3.80;;;22.60;99.90;;;;;;5091287;28;20039;-69
2023/06/15 08:43:32;;;;;;;4.57;3.28;;;22.60;99.90;;;;;;5091193;28;20046;-71
2023/06/15 08:46:36;;;;;;;4.55;2.72;;;22.70;99.90;;;;;;5090951;28;20051;-69
2023/06/15 08:49:41;;;;;;;6.40;3.25;;;22.80;99.90;;;;;;5090745;28;20047;-68
2023/06/15 08:52:46;;;;;;;7.57;3.35;;;23.00;99.90;;;;;;5091100;28;20383;-72
2023/06/15 08:55:50;;;;;;;5.72;2.75;;;23.10;99.90;;;;;;5066995;28;20052;-69
2023/06/15 08:58:54;;;;;;;3.42;2.22;;;23.20;99.90;;;;;;5090918;28;20047;-71
2023/06/15 09:02:03;;;;;;;7.13;2.50;;;23.30;99.90;;;;;;5090826;28;20388;-72
2023/06/15 09:05:08;;;;;;;7.25;3.47;;;23.40;99.90;;;;;;5078002;28;20039;-69
2023/06/15 09:08:12;;;;;;;7.93;3.30;;;23.50;99.90;;;;;;5091390;28;20043;-72
2023/06/15 09:11:17;;;;;;;7.80;3.05;;;23.60;99.90;;;;;;5090929;28;20047;-68
2023/06/15 09:14:21;;;;;;;4.68;2.63;;;23.60;99.90;;;;;;5090267;28;20059;-73
2023/06/15 09:17:28;;;;;;;4.55;3.40;;;23.80;99.90;;;;;;5090614;28;20062;-73
2023/06/15 09:20:38;;;;;;;5.80;3.28;;;23.80;99.90;;;;;;5090676;28;20039;-72
2023/06/15 09:23:44;;;;;;;7.05;3.22;;;23.90;99.90;;;;;;5090787;28;20043;-69
2023/06/15 09:26:48;;;;;;;6.80;3.03;;;24.00;99.90;;;;;;5090869;28;20055;-71
2023/06/15 09:30:07;;;;;;;6.82;2.90;;;24.00;99.90;;;;;;5090348;28;20050;-70
2023/06/15 09:33:19;;;;;;;3.47;2.20;;;24.00;99.90;;;;;;5090496;28;20058;-70
2023/06/15 09:36:22;;;;;;;2.78;1.80;;;24.20;99.90;;;;;;5090307;28;20051;-70
2023/06/15 09:39:26;;;;;;;4.43;2.00;;;24.20;99.40;;;;;;5090484;28;20040;-68
2023/06/15 09:42:31;;;;;;;5.10;1.85;;;24.40;98.80;;;;;;5078060;28;20059;-68
2023/06/15 09:45:34;;;;;;;7.95;3.13;;;24.50;98.80;;;;;;5090161;28;20046;-67
2023/06/15 09:48:40;;;;;;;4.20;1.98;;;24.70;99.00;;;;;;5077520;28;20035;-68
2023/06/15 09:51:48;;;;;;;4.43;1.80;;;24.80;98.70;;;;;;5090512;28;20090;-70
2023/06/15 09:54:55;;;;;;;4.85;1.83;;;24.90;98.70;;;;;;5090434;28;20502;-70
2023/06/15 09:57:59;;;;;;;2.13;1.80;;;24.90;98.80;;;;;;5091895;28;20070;-71
2023/06/15 10:01:04;;;;;;;4.28;1.90;;;24.90;98.10;;;;;;5081324;28;20043;-69
2023/06/15 10:04:09;;;;;;;3.40;2.03;;;24.90;98.00;;;;;;5093941;28;20388;-70
2023/06/15 10:07:19;;;;;;;3.70;2.03;;;24.90;98.30;;;;;;5093837;28;20391;-71
2023/06/15 10:10:24;;;;;;;4.63;1.70;;;25.00;98.60;;;;;;5094205;28;20047;-72
2023/06/15 10:13:43;;;;;;;4.05;2.08;;;25.00;99.20;;;;;;5094068;28;20039;-71
2023/06/15 10:16:53;;;;;;;3.70;2.03;;;25.00;99.20;;;;;;5093735;28;20055;-70
2023/06/15 10:20:08;;;;;;;4.53;2.08;;;25.00;98.90;;;;;;5093594;28;20040;-71
2023/06/15 10:23:14;;;;;;;5.35;2.25;;;25.00;99.00;;;;;;5093507;28;20036;-71
2023/06/15 10:26:18;;;;;;;4.82;1.80;;;25.10;98.70;;;;;;5093380;28;20381;-70
2023/06/15 10:29:36;;;;;;;4.05;1.80;;;25.10;98.30;;;;;;5092515;28;20039;-71
2023/06/15 10:32:47;;;;;;;3.65;1.70;;;25.10;98.00;;;;;;5092449;28;20051;-71
2023/06/15 10:35:59;;;;;;;2.70;1.70;;;25.10;97.70;;;;;;5092709;28;20063;-71
2023/06/15 10:39:26;;;;;;;5.72;1.42;;;25.20;97.60;;;;;;5093315;28;20051;-71
2023/06/15 10:42:42;;;;;;;2.53;1.63;;;25.30;97.80;;;;;;5093214;28;20063;-71
2023/06/15 10:45:46;;;;;;;3.10;2.50;;;25.40;97.80;;;;;;5093217;28;20043;-71
2023/06/15 10:48:52;;;;;;;3.60;1.70;;;25.50;96.50;;;;;;5093049;28;20047;-72
2023/06/15 10:51:57;;;;;;;4.40;1.70;;;25.40;96.30;;;;;;5093192;28;20051;-71
2023/06/15 10:55:07;;;;;;;3.03;2.00;;;25.50;96.30;;;;;;5093002;28;20047;-71
2023/06/15 10:58:18;;;;;;;4.13;1.92;;;25.50;96.30;;;;;;5093362;28;20426;-71
2023/06/15 11:01:32;;;;;;;5.57;2.15;;;25.60;96.30;;;;;;5080130;28;20039;-71
2023/06/15 11:04:36;;;;;;;4.38;1.95;;;25.60;96.10;;;;;;5092515;28;20050;-71
2023/06/15 11:07:43;;;;;;;3.63;1.48;;;25.50;95.50;;;;;;5092486;28;20526;-71
2023/06/15 11:10:47;;;;;;;2.47;1.88;;;25.50;95.60;;;;;;5091870;28;20047;-71
2023/06/15 11:14:05;;;;;;;2.20;1.70;;;25.50;95.60;;;;;;5092350;28;20106;-71
2023/06/15 11:17:09;;;;;;;2.40;1.38;;;25.40;95.80;;;;;;5092236;28;20063;-71
2023/06/15 11:20:38;;;;;;;2.47;1.45;;;25.30;95.80;;;;;;5092642;28;20035;-71
2023/06/15 11:23:45;;;;;;;6.43;2.13;;;25.30;96.10;;;;;;5092068;28;20042;-71
2023/06/15 11:26:50;;;;;;;3.00;2.10;;;25.20;95.70;;;;;;5092300;28;20043;-71
2023/06/15 11:29:57;;;;;;;3.10;2.00;;;25.20;95.40;;;;;;5092138;28;20110;-71
2023/06/15 11:33:01;;;;;;;3.60;1.70;;;25.10;95.90;;;;;;5092237;28;20051;-71
2023/06/15 11:36:06;;;;;;;4.30;2.28;;;25.10;96.00;;;;;;5091992;28;20063;-71
2023/06/15 11:39:21;;;;;;;2.72;2.15;;;25.00;96.10;;;;;;5079355;28;20068;-71
2023/06/15 11:42:26;;;;;;;4.70;2.10;;;25.10;96.40;;;;;;5092054;28;20047;-71
2023/06/15 11:45:30;;;;;;;2.85;1.90;;;25.20;96.50;;;;;;5092095;28;20058;-71
2023/06/15 11:48:34;;;;;;;3.47;2.28;;;25.30;96.70;;;;;;5092010;28;20039;-71
2023/06/15 11:51:46;;;;;;;4.68;3.05;;;25.40;96.50;;;;;;5091762;28;20039;-70
2023/06/15 11:54:50;;;;;;;6.47;3.42;;;25.30;95.90;;;;;;5091687;28;20047;-72
2023/06/15 11:57:54;;;;;;;5.07;3.15;;;25.30;95.70;;;;;;5091649;28;20059;-72
2023/06/15 12:00:59;;;;;;;5.05;2.63;;;25.30;96.30;;;;;;5091443;28;20035;-72
2023/06/15 12:04:10;;;;;;;3.28;2.10;;;25.40;96.70;;;;;;5091564;28;20498;-72
2023/06/15 12:07:14;;;;;;;5.32;2.72;;;25.50;96.70;;;;;;5091976;28;20051;-72
2023/06/15 12:10:18;;;;;;;6.47;2.88;;;25.50;96.50;;;;;;5091908;28;20051;-72
2023/06/15 12:13:23;;;;;;;3.72;2.90;;;25.50;96.10;;;;;;5078996;28;20602;-72
2023/06/15 12:16:29;;;;;;;5.25;2.42;;;25.60;96.00;;;;;;5090247;28;20055;-72
2023/06/15 12:19:33;;;;;;;2.88;2.30;;;25.60;96.00;;;;;;5078730;28;20043;-68
2023/06/15 12:22:46;;;;;;;3.83;2.03;;;25.60;95.90;;;;;;5091100;28;20051;-72
2023/06/15 12:25:55;;;;;;;3.28;2.40;;;25.70;95.90;;;;;;5091170;28;20349;-72
2023/06/15 12:29:12;;;;;;;5.35;2.95;;;25.70;96.10;;;;;;5089907;28;20035;-71
2023/06/15 12:32:23;;;;;;;5.13;2.60;;;25.70;95.90;;;;;;5091008;28;20046;-71
2023/06/15 12:35:33;;;;;;;3.38;2.40;;;25.70;96.00;;;;;;5090909;28;20039;-71
2023/06/15 12:38:37;;;;;;;3.40;2.38;;;25.70;96.10;;;;;;5091088;28;20103;-72
2023/06/15 12:41:42;;;;;;;6.38;2.30;;;25.70;95.90;;;;;;5091094;28;20055;-71
2023/06/15 12:44:46;;;;;;;4.25;2.38;;;25.70;96.00;;;;;;5091133;28;20400;-72
2023/06/15 12:47:51;;;;;;;3.53;2.25;;;25.60;95.90;;;;;;5090759;28;20035;-71
2023/06/15 12:50:55;;;;;;;5.50;2.25;;;25.60;96.00;;;;;;5090928;28;20047;-72
2023/06/15 12:54:00;;;;;;;4.50;2.38;;;25.60;96.10;;;;;;5090952;28;20047;-71
2023/06/15 12:57:05;;;;;;;8.73;2.80;;;25.50;96.10;;;;;;5090792;28;20540;-71
2023/06/15 13:00:09;;;;;;;4.97;2.20;;;25.50;96.00;;;;;;5091360;28;20408;-71
2023/06/15 13:03:13;;;;;;;4.40;2.50;;;25.40;96.10;;;;;;5090857;28;20491;-71
2023/06/15 13:06:17;;;;;;;3.67;2.63;;;25.30;95.90;;;;;;5090886;28;20051;-71
2023/06/15 13:09:21;;;;;;;4.82;3.45;;;25.20;95.80;;;;;;5090762;28;20044;-71
2023/06/15 13:12:25;;;;;;;8.90;3.50;;;25.10;96.30;;;;;;5090893;28;20051;-71
2023/06/15 13:15:30;;;;;;;8.80;3.45;;;24.90;99.10;;;;;;5090738;28;20039;-71
2023/06/15 13:18:34;;;;;;;5.13;3.03;;;24.70;99.90;;;;;;5090499;28;20047;-71
2023/06/15 13:21:38;;;;;;;7.25;3.58;;;24.70;99.90;;;;;;5090393;28;20396;-72
2023/06/15 13:24:42;;;;;;;5.82;3.35;;;24.60;99.90;;;;;;5090331;28;20040;-71
2023/06/15 13:27:46;;;;;;;5.72;3.13;;;24.70;99.90;;;;;;5091241;28;20046;-71
2023/06/15 13:30:50;;;;;;;5.32;2.88;;;24.60;99.90;;;;;;5090425;28;20610;-71
2023/06/15 13:33:54;;;;;;;4.22;2.40;;;24.50;99.90;;;;;;5093550;28;20059;-72
2023/06/15 13:36:58;;;;;;;5.47;2.80;;;24.50;99.90;;;;;;5094266;28;20063;-71
2023/06/15 13:40:06;;;;;;;5.15;2.13;;;24.40;99.90;;;;;;5094496;28;20035;-71
2023/06/15 13:43:10;;;;;;;3.60;1.90;;;24.40;99.90;;;;;;5094191;28;20043;-71
2023/06/15 13:46:14;;;;;;;4.32;2.20;;;24.40;99.90;;;;;;5094009;28;20046;-71
2023/06/15 13:49:18;;;;;;;5.82;2.20;;;24.50;99.90;;;;;;5094271;28;20035;-71
2023/06/15 13:52:22;;;;;;;5.95;2.50;;;24.50;99.90;;;;;;5094174;28;20396;-72
2023/06/15 13:55:26;;;;;;;3.10;1.77;;;24.60;99.90;;;;;;5094082;28;20510;-72
2023/06/15 13:58:30;;;;;;;7.22;2.28;;;24.60;99.90;;;;;;5093747;28;20113;-71
2023/06/15 14:01:34;;;;;;;7.07;2.20;;;24.60;99.90;;;;;;5081693;28;20511;-71
2023/06/15 14:04:38;;;;;;;6.72;3.13;;;24.50;99.90;;;;;;5093758;28;20113;-70
2023/06/15 14:07:42;;;;;;;5.68;3.45;;;24.60;99.90;;;;;;5094109;28;20043;-71
2023/06/15 14:10:47;;;;;;;11.93;5.32;;;24.60;99.90;;;;;;5094135;28;20039;-72
2023/06/15 14:13:51;;;;;;;12.00;7.45;;;24.60;99.90;;;;;;5093940;28;20097;-71
2023/06/15 14:16:55;;;;;;;13.73;9.23;;;24.50;99.90;;;;;;5094419;28;20078;-70
2023/06/15 14:19:58;;;;;;;15.27;9.30;;;24.40;99.90;;;;;;5093785;28;20043;-71
2023/06/15 14:23:02;;;;;;;13.65;8.10;;;24.30;99.90;;;;;;5093118;28;20055;-70
2023/06/15 14:26:06;;;;;;;15.85;8.38;;;24.20;99.90;;;;;;5093412;28;20384;-71
2023/06/15 14:29:12;;;;;;;16.20;9.77;;;24.10;99.90;;;;;;5093372;28;20466;-71
2023/06/15 14:32:16;;;;;;;14.23;6.05;;;24.10;99.90;;;;;;5093276;28;20047;-71
2023/06/15 14:35:20;;;;;;;11.73;4.40;;;24.10;99.90;;;;;;5093538;28;20047;-71
2023/06/15 14:38:24;;;;;;;6.93;3.65;;;24.00;99.90;;;;;;5093325;28;20051;-72
2023/06/15 14:41:28;;;;;;;6.30;3.55;;;24.00;99.90;;;;;;5093020;28;20043;-72
2023/06/15 14:44:32;;;;;;;5.25;2.40;;;24.00;99.90;;;;;;5092684;28;20074;-72
2023/06/15 14:47:36;;;;;;;9.32;2.92;;;24.00;99.90;;;;;;5092972;28;20043;-71
2023/06/15 14:50:40;;;;;;;5.38;2.40;;;24.00;99.90;;;;;;5092882;28;20043;-71
2023/06/15 14:53:45;;;;;;;10.48;3.70;;;24.00;99.90;;;;;;5092439;28;20043;-72
2023/06/15 14:56:50;;;;;;;10.02;2.60;;;24.00;99.90;;;;;;5092866;28;20092;-72
2023/06/15 14:59:54;;;;;;;6.85;2.08;;;23.90;99.90;;;;;;5093040;28;20067;-72
2023/06/15 15:02:58;;;;;;;25.85;2.75;;;23.90;99.90;;;;;;5092742;28;20051;-67
2023/06/15 15:06:02;;;;;;;9.20;2.30;;;23.90;99.90;;;;;;5092727;28;20043;-68
2023/06/15 15:09:06;;;;;;;8.32;3.55;;;23.80;99.90;;;;;;5092639;28;20490;-68
2023/06/15 15:12:11;;;;;;;6.63;2.92;;;23.80;99.90;;;;;;5092478;28;20514;-69
2023/06/15 15:15:14;;;;;;;7.78;2.70;;;23.90;99.90;;;;;;5092579;28;20046;-68
2023/06/15 15:18:18;;;;;;;4.90;2.65;;;23.90;99.90;;;;;;5092321;28;20055;-68
2023/06/15 15:21:23;;;;;;;14.63;3.67;;;23.90;99.90;;;;;;5092427;28;20054;-68
2023/06/15 15:24:28;;;;;;;15.10;5.10;;;23.90;99.90;;;;;;5092176;28;20062;-69
2023/06/15 15:27:32;;;;;;;15.00;4.05;;;24.00;99.90;;;;;;5091977;28;20043;-70
2023/06/15 15:30:36;;;;;;;12.20;3.83;;;24.00;99.90;;;;;;5091635;28;20134;-72
2023/06/15 15:33:40;;;;;;;9.95;3.60;;;24.10;99.90;;;;;;5091989;28;20051;-69
2023/06/15 15:36:44;;;;;;;6.95;4.35;;;24.10;99.90;;;;;;5092016;28;20043;-69
2023/06/15 15:39:48;;;;;;;11.40;4.30;;;24.20;99.90;;;;;;5092193;28;20122;-69
2023/06/15 15:42:52;;;;;;;5.22;3.40;;;24.20;99.90;;;;;;5091767;28;20039;-68
2023/06/15 15:45:56;;;;;;;7.82;3.95;;;24.30;99.90;;;;;;5092022;28;20043;-69
2023/06/15 15:49:00;;;;;;;8.70;3.85;;;24.30;99.90;;;;;;5092015;28;20047;-68
2023/06/15 15:52:04;;;;;;;7.30;3.75;;;24.30;99.90;;;;;;5091636;28;20059;-68
2023/06/15 15:55:08;;;;;;;7.90;4.10;;;24.30;99.90;;;;;;5077055;28;20047;-68
2023/06/15 15:58:12;;;;;;;9.40;3.88;;;24.40;99.90;;;;;;5079137;28;20043;-68
2023/06/15 16:01:16;;;;;;;5.82;3.72;;;24.40;99.90;;;;;;5091941;28;20055;-67
2023/06/15 16:04:20;;;;;;;12.07;3.90;;;24.40;99.90;;;;;;5079213;28;20043;-69